sensor_id;sensor_type;location;lat;lon;timestamp;P1;durP1;ratioP1;P2;durP2;ratioP2
10557;SDS011;5327;47.238;-2.304;2022-09-23T00:02:11;15.40;;;6.20;;
10557;SDS011;5327;47.238;-2.304;2022-09-23T00:04:37;17.43;;;5.53;;
10557;SDS011;5327;47.238;-2.304;2022-09-23T00:07:07;12.13;;;5.90;;
10557;SDS011;5327;47.238;-2.304;2022-09-23T00:09:33;16.33;;;5.40;;
10557;SDS011;5327;47.238;-2.304;2022-09-23T00:12:02;17.30;;;6.00;;
10557;SDS011;5327;47.238;-2.304;2022-09-23T00:14:32;11.80;;;4.80;;
10557;SDS011;5327;47.238;-2.304;2022-09-23T00:16:58;27.50;;;7.20;;
10557;SDS011;5327;47.238;-2.304;2022-09-23T00:19:24;21.93;;;6.13;;
10557;SDS011;5327;47.238;-2.304;2022-09-23T00:21:50;10.70;;;5.03;;
10557;SDS011;5327;47.238;-2.304;2022-09-23T00:24:16;20.77;;;6.30;;
10557;SDS011;5327;47.238;-2.304;2022-09-23T00:26:43;15.17;;;5.87;;
10557;SDS011;5327;47.238;-2.304;2022-09-23T00:29:12;14.87;;;5.37;;
10557;SDS011;5327;47.238;-2.304;2022-09-23T00:31:40;17.50;;;5.90;;
10557;SDS011;5327;47.238;-2.304;2022-09-23T00:34:08;13.13;;;5.37;;
10557;SDS011;5327;47.238;-2.304;2022-09-23T00:36:35;12.87;;;5.40;;
10557;SDS011;5327;47.238;-2.304;2022-09-23T00:39:01;16.93;;;5.20;;
10557;SDS011;5327;47.238;-2.304;2022-09-23T00:41:28;17.27;;;5.93;;
10557;SDS011;5327;47.238;-2.304;2022-09-23T00:43:58;17.53;;;6.60;;
10557;SDS011;5327;47.238;-2.304;2022-09-23T00:46:40;15.30;;;6.07;;
10557;SDS011;5327;47.238;-2.304;2022-09-23T00:49:09;12.37;;;5.80;;
10557;SDS011;5327;47.238;-2.304;2022-09-23T00:51:37;19.97;;;6.67;;
10557;SDS011;5327;47.238;-2.304;2022-09-23T00:54:04;15.43;;;6.00;;
10557;SDS011;5327;47.238;-2.304;2022-09-23T00:56:30;18.43;;;5.77;;
10557;SDS011;5327;47.238;-2.304;2022-09-23T00:58:57;18.63;;;7.23;;
10557;SDS011;5327;47.238;-2.304;2022-09-23T01:01:24;12.77;;;5.30;;
10557;SDS011;5327;47.238;-2.304;2022-09-23T01:03:50;17.20;;;6.40;;
10557;SDS011;5327;47.238;-2.304;2022-09-23T01:06:18;14.60;;;6.37;;
10557;SDS011;5327;47.238;-2.304;2022-09-23T01:08:44;18.43;;;7.17;;
10557;SDS011;5327;47.238;-2.304;2022-09-23T01:13:54;16.63;;;5.70;;
10557;SDS011;5327;47.238;-2.304;2022-09-23T01:16:28;14.10;;;5.40;;
10557;SDS011;5327;47.238;-2.304;2022-09-23T01:36:43;16.50;;;5.80;;
10557;SDS011;5327;47.238;-2.304;2022-09-23T01:39:14;15.13;;;4.90;;
10557;SDS011;5327;47.238;-2.304;2022-09-23T01:46:47;17.00;;;5.50;;
10557;SDS011;5327;47.238;-2.304;2022-09-23T01:49:19;11.87;;;4.77;;
10557;SDS011;5327;47.238;-2.304;2022-09-23T01:52:05;15.90;;;5.70;;
10557;SDS011;5327;47.238;-2.304;2022-09-23T01:54:37;16.60;;;5.50;;
10557;SDS011;5327;47.238;-2.304;2022-09-23T01:57:14;14.43;;;5.40;;
10557;SDS011;5327;47.238;-2.304;2022-09-23T01:59:43;18.07;;;6.37;;
10557;SDS011;5327;47.238;-2.304;2022-09-23T02:02:16;12.60;;;5.33;;
10557;SDS011;5327;47.238;-2.304;2022-09-23T02:07:52;13.70;;;5.03;;
10557;SDS011;5327;47.238;-2.304;2022-09-23T02:10:26;12.83;;;5.07;;
10557;SDS011;5327;47.238;-2.304;2022-09-23T02:12:54;14.90;;;4.90;;
10557;SDS011;5327;47.238;-2.304;2022-09-23T02:15:24;18.20;;;5.67;;
10557;SDS011;5327;47.238;-2.304;2022-09-23T02:17:53;12.00;;;4.57;;
10557;SDS011;5327;47.238;-2.304;2022-09-23T02:20:29;15.90;;;4.83;;
10557;SDS011;5327;47.238;-2.304;2022-09-23T02:23:11;16.63;;;4.60;;
10557;SDS011;5327;47.238;-2.304;2022-09-23T02:25:49;12.57;;;5.10;;
10557;SDS011;5327;47.238;-2.304;2022-09-23T02:28:26;14.23;;;5.00;;
10557;SDS011;5327;47.238;-2.304;2022-09-23T02:30:58;14.80;;;5.60;;
10557;SDS011;5327;47.238;-2.304;2022-09-23T02:33:42;14.17;;;5.70;;
10557;SDS011;5327;47.238;-2.304;2022-09-23T02:36:20;15.87;;;5.83;;
10557;SDS011;5327;47.238;-2.304;2022-09-23T02:38:51;13.90;;;4.87;;
10557;SDS011;5327;47.238;-2.304;2022-09-23T02:44:05;15.07;;;5.10;;
10557;SDS011;5327;47.238;-2.304;2022-09-23T02:46:32;13.77;;;5.43;;
10557;SDS011;5327;47.238;-2.304;2022-09-23T02:49:02;13.20;;;4.67;;
10557;SDS011;5327;47.238;-2.304;2022-09-23T02:51:29;13.20;;;5.00;;
10557;SDS011;5327;47.238;-2.304;2022-09-23T02:54:03;12.97;;;5.10;;
10557;SDS011;5327;47.238;-2.304;2022-09-23T02:56:31;13.53;;;5.13;;
10557;SDS011;5327;47.238;-2.304;2022-09-23T02:58:58;14.13;;;5.83;;
10557;SDS011;5327;47.238;-2.304;2022-09-23T03:01:28;18.80;;;5.63;;
10557;SDS011;5327;47.238;-2.304;2022-09-23T03:11:34;16.90;;;6.23;;
10557;SDS011;5327;47.238;-2.304;2022-09-23T03:14:13;11.00;;;4.87;;
10557;SDS011;5327;47.238;-2.304;2022-09-23T03:16:55;12.73;;;5.50;;
10557;SDS011;5327;47.238;-2.304;2022-09-23T03:22:01;7.40;;;3.83;;
10557;SDS011;5327;47.238;-2.304;2022-09-23T03:24:29;13.97;;;5.43;;
10557;SDS011;5327;47.238;-2.304;2022-09-23T03:26:57;12.47;;;4.90;;
10557;SDS011;5327;47.238;-2.304;2022-09-23T03:29:25;13.43;;;4.70;;
10557;SDS011;5327;47.238;-2.304;2022-09-23T03:31:53;12.43;;;5.00;;
10557;SDS011;5327;47.238;-2.304;2022-09-23T03:34:20;9.03;;;4.07;;
10557;SDS011;5327;47.238;-2.304;2022-09-23T03:36:53;11.87;;;4.50;;
10557;SDS011;5327;47.238;-2.304;2022-09-23T03:39:30;14.23;;;5.27;;
10557;SDS011;5327;47.238;-2.304;2022-09-23T03:41:58;14.43;;;4.83;;
10557;SDS011;5327;47.238;-2.304;2022-09-23T03:44:25;19.73;;;6.20;;
10557;SDS011;5327;47.238;-2.304;2022-09-23T03:46:53;18.47;;;5.80;;
10557;SDS011;5327;47.238;-2.304;2022-09-23T03:49:23;13.07;;;5.40;;
10557;SDS011;5327;47.238;-2.304;2022-09-23T03:51:51;17.73;;;6.53;;
10557;SDS011;5327;47.238;-2.304;2022-09-23T03:54:17;10.77;;;4.53;;
10557;SDS011;5327;47.238;-2.304;2022-09-23T03:56:44;17.63;;;5.70;;
10557;SDS011;5327;47.238;-2.304;2022-09-23T03:59:12;12.50;;;5.33;;
10557;SDS011;5327;47.238;-2.304;2022-09-23T04:01:39;17.03;;;5.50;;
10557;SDS011;5327;47.238;-2.304;2022-09-23T04:04:06;16.00;;;6.03;;
10557;SDS011;5327;47.238;-2.304;2022-09-23T04:06:32;17.23;;;5.87;;
10557;SDS011;5327;47.238;-2.304;2022-09-23T04:08:58;15.10;;;5.20;;
10557;SDS011;5327;47.238;-2.304;2022-09-23T04:11:25;16.73;;;5.40;;
10557;SDS011;5327;47.238;-2.304;2022-09-23T04:13:51;15.53;;;5.70;;
10557;SDS011;5327;47.238;-2.304;2022-09-23T04:16:17;13.80;;;5.03;;
10557;SDS011;5327;47.238;-2.304;2022-09-23T04:18:43;16.87;;;6.10;;
10557;SDS011;5327;47.238;-2.304;2022-09-23T04:21:09;16.07;;;5.93;;
10557;SDS011;5327;47.238;-2.304;2022-09-23T04:23:35;17.57;;;5.53;;
10557;SDS011;5327;47.238;-2.304;2022-09-23T04:26:02;19.90;;;6.10;;
10557;SDS011;5327;47.238;-2.304;2022-09-23T04:28:29;17.47;;;4.97;;
10557;SDS011;5327;47.238;-2.304;2022-09-23T04:30:55;13.43;;;4.70;;
10557;SDS011;5327;47.238;-2.304;2022-09-23T04:33:22;15.63;;;5.80;;
10557;SDS011;5327;47.238;-2.304;2022-09-23T04:35:51;13.00;;;5.47;;
10557;SDS011;5327;47.238;-2.304;2022-09-23T04:38:18;17.50;;;6.13;;
10557;SDS011;5327;47.238;-2.304;2022-09-23T04:40:44;18.20;;;6.73;;
10557;SDS011;5327;47.238;-2.304;2022-09-23T04:43:10;16.50;;;6.00;;
10557;SDS011;5327;47.238;-2.304;2022-09-23T04:45:38;11.37;;;5.20;;
10557;SDS011;5327;47.238;-2.304;2022-09-23T04:48:04;18.33;;;6.70;;
10557;SDS011;5327;47.238;-2.304;2022-09-23T04:50:31;17.10;;;5.53;;
10557;SDS011;5327;47.238;-2.304;2022-09-23T04:52:58;16.63;;;6.40;;
10557;SDS011;5327;47.238;-2.304;2022-09-23T04:55:24;19.03;;;7.30;;
10557;SDS011;5327;47.238;-2.304;2022-09-23T04:57:50;20.23;;;7.30;;
10557;SDS011;5327;47.238;-2.304;2022-09-23T05:00:16;15.20;;;5.13;;
10557;SDS011;5327;47.238;-2.304;2022-09-23T05:02:46;21.70;;;7.83;;
10557;SDS011;5327;47.238;-2.304;2022-09-23T05:05:12;15.90;;;6.40;;
10557;SDS011;5327;47.238;-2.304;2022-09-23T05:07:40;16.33;;;6.90;;
10557;SDS011;5327;47.238;-2.304;2022-09-23T05:10:07;23.33;;;8.90;;
10557;SDS011;5327;47.238;-2.304;2022-09-23T05:12:33;16.17;;;7.10;;
10557;SDS011;5327;47.238;-2.304;2022-09-23T05:14:59;11.87;;;6.03;;
10557;SDS011;5327;47.238;-2.304;2022-09-23T05:17:26;23.83;;;8.00;;
10557;SDS011;5327;47.238;-2.304;2022-09-23T05:19:52;18.33;;;7.43;;
10557;SDS011;5327;47.238;-2.304;2022-09-23T05:22:18;15.53;;;7.03;;
10557;SDS011;5327;47.238;-2.304;2022-09-23T05:24:46;25.03;;;7.67;;
10557;SDS011;5327;47.238;-2.304;2022-09-23T05:27:12;13.77;;;6.00;;
10557;SDS011;5327;47.238;-2.304;2022-09-23T05:29:38;15.27;;;6.13;;
10557;SDS011;5327;47.238;-2.304;2022-09-23T05:32:04;19.13;;;7.70;;
10557;SDS011;5327;47.238;-2.304;2022-09-23T05:34:31;19.93;;;7.20;;
10557;SDS011;5327;47.238;-2.304;2022-09-23T05:36:57;30.67;;;7.60;;
10557;SDS011;5327;47.238;-2.304;2022-09-23T05:39:23;18.97;;;6.97;;
10557;SDS011;5327;47.238;-2.304;2022-09-23T05:41:49;17.10;;;7.80;;
10557;SDS011;5327;47.238;-2.304;2022-09-23T05:44:16;17.40;;;8.00;;
10557;SDS011;5327;47.238;-2.304;2022-09-23T05:46:42;23.97;;;9.37;;
10557;SDS011;5327;47.238;-2.304;2022-09-23T05:49:08;19.40;;;8.80;;
10557;SDS011;5327;47.238;-2.304;2022-09-23T05:51:36;23.63;;;7.87;;
10557;SDS011;5327;47.238;-2.304;2022-09-23T05:54:02;20.53;;;9.43;;
10557;SDS011;5327;47.238;-2.304;2022-09-23T05:56:29;16.00;;;7.93;;
10557;SDS011;5327;47.238;-2.304;2022-09-23T05:58:56;19.97;;;8.43;;
10557;SDS011;5327;47.238;-2.304;2022-09-23T06:01:24;17.93;;;7.87;;
10557;SDS011;5327;47.238;-2.304;2022-09-23T06:03:50;16.90;;;7.60;;
10557;SDS011;5327;47.238;-2.304;2022-09-23T06:06:17;19.30;;;7.33;;
10557;SDS011;5327;47.238;-2.304;2022-09-23T06:08:46;16.07;;;6.33;;
10557;SDS011;5327;47.238;-2.304;2022-09-23T06:11:12;19.53;;;7.93;;
10557;SDS011;5327;47.238;-2.304;2022-09-23T06:13:39;17.73;;;7.03;;
10557;SDS011;5327;47.238;-2.304;2022-09-23T06:16:06;21.30;;;8.27;;
10557;SDS011;5327;47.238;-2.304;2022-09-23T06:18:36;20.87;;;7.53;;
10557;SDS011;5327;47.238;-2.304;2022-09-23T06:21:03;17.30;;;7.70;;
10557;SDS011;5327;47.238;-2.304;2022-09-23T06:23:29;20.90;;;8.17;;
10557;SDS011;5327;47.238;-2.304;2022-09-23T06:26:02;17.47;;;7.40;;
10557;SDS011;5327;47.238;-2.304;2022-09-23T06:28:32;15.17;;;6.67;;
10557;SDS011;5327;47.238;-2.304;2022-09-23T06:30:58;15.70;;;7.40;;
10557;SDS011;5327;47.238;-2.304;2022-09-23T06:33:25;15.90;;;6.43;;
10557;SDS011;5327;47.238;-2.304;2022-09-23T06:36:02;23.07;;;7.13;;
10557;SDS011;5327;47.238;-2.304;2022-09-23T06:38:28;21.40;;;8.70;;
10557;SDS011;5327;47.238;-2.304;2022-09-23T06:40:55;19.63;;;6.67;;
10557;SDS011;5327;47.238;-2.304;2022-09-23T06:43:22;21.00;;;7.33;;
10557;SDS011;5327;47.238;-2.304;2022-09-23T06:45:52;23.43;;;9.03;;
10557;SDS011;5327;47.238;-2.304;2022-09-23T06:48:19;17.13;;;6.50;;
10557;SDS011;5327;47.238;-2.304;2022-09-23T06:50:45;16.63;;;6.83;;
10557;SDS011;5327;47.238;-2.304;2022-09-23T06:53:13;16.80;;;7.27;;
10557;SDS011;5327;47.238;-2.304;2022-09-23T06:55:39;19.50;;;8.37;;
10557;SDS011;5327;47.238;-2.304;2022-09-23T06:58:05;20.63;;;8.90;;
10557;SDS011;5327;47.238;-2.304;2022-09-23T07:00:32;17.50;;;6.73;;
10557;SDS011;5327;47.238;-2.304;2022-09-23T07:02:58;21.63;;;8.87;;
10557;SDS011;5327;47.238;-2.304;2022-09-23T07:05:24;20.77;;;9.03;;
10557;SDS011;5327;47.238;-2.304;2022-09-23T07:07:50;18.93;;;9.60;;
10557;SDS011;5327;47.238;-2.304;2022-09-23T07:10:17;20.50;;;7.77;;
10557;SDS011;5327;47.238;-2.304;2022-09-23T07:12:43;16.13;;;7.70;;
10557;SDS011;5327;47.238;-2.304;2022-09-23T07:15:09;17.70;;;8.30;;
10557;SDS011;5327;47.238;-2.304;2022-09-23T07:17:36;21.73;;;9.00;;
10557;SDS011;5327;47.238;-2.304;2022-09-23T07:20:02;22.70;;;9.40;;
10557;SDS011;5327;47.238;-2.304;2022-09-23T07:22:28;18.43;;;10.03;;
10557;SDS011;5327;47.238;-2.304;2022-09-23T07:24:54;22.17;;;10.03;;
10557;SDS011;5327;47.238;-2.304;2022-09-23T07:27:24;24.83;;;10.20;;
10557;SDS011;5327;47.238;-2.304;2022-09-23T07:29:50;22.33;;;8.50;;
10557;SDS011;5327;47.238;-2.304;2022-09-23T07:32:17;26.67;;;14.83;;
10557;SDS011;5327;47.238;-2.304;2022-09-23T07:34:43;18.33;;;9.63;;
10557;SDS011;5327;47.238;-2.304;2022-09-23T07:37:11;24.13;;;9.40;;
10557;SDS011;5327;47.238;-2.304;2022-09-23T07:39:37;24.13;;;9.40;;
10557;SDS011;5327;47.238;-2.304;2022-09-23T07:42:04;23.70;;;10.10;;
10557;SDS011;5327;47.238;-2.304;2022-09-23T07:44:30;23.80;;;9.40;;
10557;SDS011;5327;47.238;-2.304;2022-09-23T07:46:56;21.13;;;8.03;;
10557;SDS011;5327;47.238;-2.304;2022-09-23T07:49:23;20.97;;;8.13;;
10557;SDS011;5327;47.238;-2.304;2022-09-23T07:51:49;14.20;;;6.90;;
10557;SDS011;5327;47.238;-2.304;2022-09-23T07:54:16;20.67;;;9.43;;
10557;SDS011;5327;47.238;-2.304;2022-09-23T07:56:43;19.80;;;7.37;;
10557;SDS011;5327;47.238;-2.304;2022-09-23T07:59:18;23.30;;;9.07;;
10557;SDS011;5327;47.238;-2.304;2022-09-23T08:01:45;26.47;;;8.60;;
10557;SDS011;5327;47.238;-2.304;2022-09-23T08:04:13;21.77;;;7.70;;
10557;SDS011;5327;47.238;-2.304;2022-09-23T08:06:48;26.73;;;7.80;;
10557;SDS011;5327;47.238;-2.304;2022-09-23T08:09:15;21.23;;;7.13;;
10557;SDS011;5327;47.238;-2.304;2022-09-23T08:11:42;21.83;;;7.67;;
10557;SDS011;5327;47.238;-2.304;2022-09-23T08:14:08;21.00;;;7.50;;
10557;SDS011;5327;47.238;-2.304;2022-09-23T08:16:34;19.60;;;7.27;;
10557;SDS011;5327;47.238;-2.304;2022-09-23T08:19:01;20.97;;;7.57;;
10557;SDS011;5327;47.238;-2.304;2022-09-23T08:21:27;22.50;;;7.30;;
10557;SDS011;5327;47.238;-2.304;2022-09-23T08:23:54;23.50;;;10.60;;
10557;SDS011;5327;47.238;-2.304;2022-09-23T08:26:20;20.73;;;6.90;;
10557;SDS011;5327;47.238;-2.304;2022-09-23T08:28:46;19.53;;;8.80;;
10557;SDS011;5327;47.238;-2.304;2022-09-23T08:31:12;27.33;;;10.17;;
10557;SDS011;5327;47.238;-2.304;2022-09-23T08:33:39;20.27;;;7.37;;
10557;SDS011;5327;47.238;-2.304;2022-09-23T08:36:05;21.87;;;8.67;;
10557;SDS011;5327;47.238;-2.304;2022-09-23T08:38:32;23.40;;;10.73;;
10557;SDS011;5327;47.238;-2.304;2022-09-23T08:41:03;23.90;;;8.30;;
10557;SDS011;5327;47.238;-2.304;2022-09-23T08:43:31;25.20;;;10.70;;
10557;SDS011;5327;47.238;-2.304;2022-09-23T08:45:59;23.53;;;8.90;;
10557;SDS011;5327;47.238;-2.304;2022-09-23T08:48:28;21.00;;;8.20;;
10557;SDS011;5327;47.238;-2.304;2022-09-23T08:50:58;25.43;;;8.60;;
10557;SDS011;5327;47.238;-2.304;2022-09-23T08:53:35;20.23;;;8.23;;
10557;SDS011;5327;47.238;-2.304;2022-09-23T08:56:05;19.30;;;7.53;;
10557;SDS011;5327;47.238;-2.304;2022-09-23T08:58:44;19.90;;;7.73;;
10557;SDS011;5327;47.238;-2.304;2022-09-23T09:03:58;23.20;;;9.60;;
10557;SDS011;5327;47.238;-2.304;2022-09-23T09:09:16;16.80;;;7.30;;
10557;SDS011;5327;47.238;-2.304;2022-09-23T09:11:44;27.40;;;8.30;;
10557;SDS011;5327;47.238;-2.304;2022-09-23T09:14:49;15.90;;;6.60;;
10557;SDS011;5327;47.238;-2.304;2022-09-23T09:17:13;20.00;;;7.30;;
10557;SDS011;5327;47.238;-2.304;2022-09-23T09:19:52;26.47;;;7.77;;
10557;SDS011;5327;47.238;-2.304;2022-09-23T09:27:52;14.50;;;6.03;;
10557;SDS011;5327;47.238;-2.304;2022-09-23T09:30:19;16.73;;;7.57;;
10557;SDS011;5327;47.238;-2.304;2022-09-23T09:32:59;21.90;;;8.33;;
10557;SDS011;5327;47.238;-2.304;2022-09-23T09:35:34;18.13;;;8.33;;
10557;SDS011;5327;47.238;-2.304;2022-09-23T09:38:02;25.03;;;8.50;;
10557;SDS011;5327;47.238;-2.304;2022-09-23T09:40:29;21.90;;;8.97;;
10557;SDS011;5327;47.238;-2.304;2022-09-23T09:42:56;24.33;;;9.40;;
10557;SDS011;5327;47.238;-2.304;2022-09-23T09:47:53;19.57;;;8.03;;
10557;SDS011;5327;47.238;-2.304;2022-09-23T09:58:31;20.80;;;10.13;;
10557;SDS011;5327;47.238;-2.304;2022-09-23T10:00:58;23.40;;;8.97;;
10557;SDS011;5327;47.238;-2.304;2022-09-23T10:03:41;24.20;;;7.80;;
10557;SDS011;5327;47.238;-2.304;2022-09-23T10:06:15;19.80;;;10.47;;
10557;SDS011;5327;47.238;-2.304;2022-09-23T10:08:46;20.80;;;9.40;;
10557;SDS011;5327;47.238;-2.304;2022-09-23T10:11:13;22.03;;;8.60;;
10557;SDS011;5327;47.238;-2.304;2022-09-23T10:13:39;24.77;;;10.27;;
10557;SDS011;5327;47.238;-2.304;2022-09-23T10:16:06;23.23;;;9.70;;
10557;SDS011;5327;47.238;-2.304;2022-09-23T10:18:37;18.43;;;8.50;;
10557;SDS011;5327;47.238;-2.304;2022-09-23T10:21:13;22.43;;;8.50;;
10557;SDS011;5327;47.238;-2.304;2022-09-23T10:23:44;23.20;;;9.00;;
10557;SDS011;5327;47.238;-2.304;2022-09-23T10:26:11;28.13;;;10.17;;
10557;SDS011;5327;47.238;-2.304;2022-09-23T10:28:51;13.67;;;6.07;;
10557;SDS011;5327;47.238;-2.304;2022-09-23T10:31:26;19.57;;;7.90;;
10557;SDS011;5327;47.238;-2.304;2022-09-23T10:33:56;17.63;;;8.40;;
10557;SDS011;5327;47.238;-2.304;2022-09-23T10:36:26;16.67;;;6.90;;
10557;SDS011;5327;47.238;-2.304;2022-09-23T10:38:56;23.17;;;7.70;;
10557;SDS011;5327;47.238;-2.304;2022-09-23T10:41:46;18.50;;;7.83;;
10557;SDS011;5327;47.238;-2.304;2022-09-23T10:44:34;21.27;;;8.40;;
10557;SDS011;5327;47.238;-2.304;2022-09-23T10:47:36;17.23;;;7.97;;
10557;SDS011;5327;47.238;-2.304;2022-09-23T10:52:57;19.10;;;8.13;;
10557;SDS011;5327;47.238;-2.304;2022-09-23T10:57:57;21.17;;;7.83;;
10557;SDS011;5327;47.238;-2.304;2022-09-23T11:05:50;16.47;;;8.10;;
10557;SDS011;5327;47.238;-2.304;2022-09-23T11:08:42;16.90;;;7.60;;
10557;SDS011;5327;47.238;-2.304;2022-09-23T11:18:55;22.67;;;9.83;;
10557;SDS011;5327;47.238;-2.304;2022-09-23T11:26:50;16.70;;;7.00;;
10557;SDS011;5327;47.238;-2.304;2022-09-23T11:36:57;23.67;;;8.77;;
10557;SDS011;5327;47.238;-2.304;2022-09-23T11:39:48;22.77;;;9.83;;
10557;SDS011;5327;47.238;-2.304;2022-09-23T11:42:14;20.03;;;9.07;;
10557;SDS011;5327;47.238;-2.304;2022-09-23T11:44:43;21.10;;;9.43;;
10557;SDS011;5327;47.238;-2.304;2022-09-23T11:47:15;20.53;;;9.33;;
10557;SDS011;5327;47.238;-2.304;2022-09-23T11:49:50;18.10;;;8.80;;
10557;SDS011;5327;47.238;-2.304;2022-09-23T11:52:19;20.27;;;7.90;;
10557;SDS011;5327;47.238;-2.304;2022-09-23T11:59:53;17.80;;;8.03;;
10557;SDS011;5327;47.238;-2.304;2022-09-23T12:05:10;16.90;;;8.10;;
10557;SDS011;5327;47.238;-2.304;2022-09-23T12:07:47;25.80;;;9.07;;
10557;SDS011;5327;47.238;-2.304;2022-09-23T12:10:18;27.80;;;9.17;;
10557;SDS011;5327;47.238;-2.304;2022-09-23T12:12:50;23.27;;;8.97;;
10557;SDS011;5327;47.238;-2.304;2022-09-23T12:26:06;15.50;;;6.47;;
10557;SDS011;5327;47.238;-2.304;2022-09-23T12:28:35;14.13;;;6.50;;
10557;SDS011;5327;47.238;-2.304;2022-09-23T12:31:03;16.53;;;5.80;;
10557;SDS011;5327;47.238;-2.304;2022-09-23T12:33:31;13.93;;;6.20;;
10557;SDS011;5327;47.238;-2.304;2022-09-23T12:36:05;21.03;;;7.10;;
10557;SDS011;5327;47.238;-2.304;2022-09-23T12:38:39;22.07;;;8.57;;
10557;SDS011;5327;47.238;-2.304;2022-09-23T12:44:12;18.20;;;6.47;;
10557;SDS011;5327;47.238;-2.304;2022-09-23T12:46:42;18.33;;;6.77;;
10557;SDS011;5327;47.238;-2.304;2022-09-23T12:49:34;21.97;;;7.57;;
10557;SDS011;5327;47.238;-2.304;2022-09-23T12:54:37;19.03;;;7.13;;
10557;SDS011;5327;47.238;-2.304;2022-09-23T12:57:48;22.90;;;7.90;;
10557;SDS011;5327;47.238;-2.304;2022-09-23T13:07:58;20.47;;;6.73;;
10557;SDS011;5327;47.238;-2.304;2022-09-23T13:10:29;18.43;;;6.70;;
10557;SDS011;5327;47.238;-2.304;2022-09-23T13:12:56;20.50;;;6.63;;
10557;SDS011;5327;47.238;-2.304;2022-09-23T13:15:32;22.13;;;6.70;;
10557;SDS011;5327;47.238;-2.304;2022-09-23T13:20:44;15.23;;;5.20;;
10557;SDS011;5327;47.238;-2.304;2022-09-23T13:23:24;16.00;;;5.70;;
10557;SDS011;5327;47.238;-2.304;2022-09-23T13:25:51;15.13;;;5.20;;
10557;SDS011;5327;47.238;-2.304;2022-09-23T13:28:24;20.50;;;5.83;;
10557;SDS011;5327;47.238;-2.304;2022-09-23T13:30:51;18.67;;;6.30;;
10557;SDS011;5327;47.238;-2.304;2022-09-23T13:33:21;15.93;;;5.37;;
10557;SDS011;5327;47.238;-2.304;2022-09-23T13:35:50;15.53;;;5.73;;
10557;SDS011;5327;47.238;-2.304;2022-09-23T13:38:22;16.53;;;5.10;;
10557;SDS011;5327;47.238;-2.304;2022-09-23T13:40:55;22.60;;;7.30;;
10557;SDS011;5327;47.238;-2.304;2022-09-23T13:43:24;21.13;;;6.13;;
10557;SDS011;5327;47.238;-2.304;2022-09-23T13:45:52;16.13;;;5.10;;
10557;SDS011;5327;47.238;-2.304;2022-09-23T13:48:19;19.53;;;6.13;;
10557;SDS011;5327;47.238;-2.304;2022-09-23T13:50:49;17.83;;;6.37;;
10557;SDS011;5327;47.238;-2.304;2022-09-23T13:53:18;19.70;;;6.47;;
10557;SDS011;5327;47.238;-2.304;2022-09-23T13:55:45;16.40;;;5.40;;
10557;SDS011;5327;47.238;-2.304;2022-09-23T13:58:12;18.23;;;6.27;;
10557;SDS011;5327;47.238;-2.304;2022-09-23T14:00:41;25.03;;;7.70;;
10557;SDS011;5327;47.238;-2.304;2022-09-23T14:06:12;17.30;;;5.30;;
10557;SDS011;5327;47.238;-2.304;2022-09-23T14:08:40;15.90;;;4.37;;
10557;SDS011;5327;47.238;-2.304;2022-09-23T14:11:13;24.30;;;6.30;;
10557;SDS011;5327;47.238;-2.304;2022-09-23T14:13:40;22.23;;;6.23;;
10557;SDS011;5327;47.238;-2.304;2022-09-23T14:16:07;20.50;;;5.80;;
10557;SDS011;5327;47.238;-2.304;2022-09-23T14:18:44;21.80;;;5.87;;
10557;SDS011;5327;47.238;-2.304;2022-09-23T14:23:52;19.23;;;5.87;;
10557;SDS011;5327;47.238;-2.304;2022-09-23T14:26:18;17.30;;;4.60;;
10557;SDS011;5327;47.238;-2.304;2022-09-23T14:28:45;17.20;;;4.50;;
10557;SDS011;5327;47.238;-2.304;2022-09-23T14:31:11;22.33;;;6.33;;
10557;SDS011;5327;47.238;-2.304;2022-09-23T14:33:38;18.40;;;5.80;;
10557;SDS011;5327;47.238;-2.304;2022-09-23T14:36:05;15.57;;;4.93;;
10557;SDS011;5327;47.238;-2.304;2022-09-23T14:38:52;16.23;;;4.80;;
10557;SDS011;5327;47.238;-2.304;2022-09-23T14:41:24;20.97;;;6.13;;
10557;SDS011;5327;47.238;-2.304;2022-09-23T14:46:18;15.20;;;5.30;;
10557;SDS011;5327;47.238;-2.304;2022-09-23T14:48:55;20.40;;;4.80;;
10557;SDS011;5327;47.238;-2.304;2022-09-23T14:51:27;13.80;;;5.23;;
10557;SDS011;5327;47.238;-2.304;2022-09-23T14:53:54;20.00;;;5.50;;
10557;SDS011;5327;47.238;-2.304;2022-09-23T14:56:20;15.93;;;4.93;;
10557;SDS011;5327;47.238;-2.304;2022-09-23T15:01:27;15.20;;;5.17;;
10557;SDS011;5327;47.238;-2.304;2022-09-23T15:06:39;12.90;;;4.90;;
10557;SDS011;5327;47.238;-2.304;2022-09-23T15:09:06;18.80;;;6.30;;
10557;SDS011;5327;47.238;-2.304;2022-09-23T15:11:33;20.20;;;5.60;;
10557;SDS011;5327;47.238;-2.304;2022-09-23T15:14:00;16.70;;;5.90;;
10557;SDS011;5327;47.238;-2.304;2022-09-23T15:16:27;16.03;;;4.97;;
10557;SDS011;5327;47.238;-2.304;2022-09-23T15:18:54;16.40;;;5.70;;
10557;SDS011;5327;47.238;-2.304;2022-09-23T15:21:20;19.23;;;6.47;;
10557;SDS011;5327;47.238;-2.304;2022-09-23T15:28:42;20.00;;;6.03;;
10557;SDS011;5327;47.238;-2.304;2022-09-23T15:31:18;17.10;;;5.93;;
10557;SDS011;5327;47.238;-2.304;2022-09-23T15:33:45;19.70;;;5.50;;
10557;SDS011;5327;47.238;-2.304;2022-09-23T15:36:15;16.77;;;5.90;;
10557;SDS011;5327;47.238;-2.304;2022-09-23T15:38:42;19.53;;;6.60;;
10557;SDS011;5327;47.238;-2.304;2022-09-23T15:41:11;23.57;;;7.90;;
10557;SDS011;5327;47.238;-2.304;2022-09-23T15:43:38;18.20;;;6.87;;
10557;SDS011;5327;47.238;-2.304;2022-09-23T15:48:39;17.27;;;6.63;;
10557;SDS011;5327;47.238;-2.304;2022-09-23T15:51:06;20.27;;;6.57;;
10557;SDS011;5327;47.238;-2.304;2022-09-23T15:53:34;13.30;;;6.40;;
10557;SDS011;5327;47.238;-2.304;2022-09-23T15:56:02;20.87;;;7.00;;
10557;SDS011;5327;47.238;-2.304;2022-09-23T15:58:30;17.47;;;6.87;;
10557;SDS011;5327;47.238;-2.304;2022-09-23T16:00:56;25.10;;;8.37;;
10557;SDS011;5327;47.238;-2.304;2022-09-23T16:03:24;15.83;;;7.10;;
10557;SDS011;5327;47.238;-2.304;2022-09-23T16:05:53;18.70;;;6.50;;
10557;SDS011;5327;47.238;-2.304;2022-09-23T16:08:24;19.63;;;6.57;;
10557;SDS011;5327;47.238;-2.304;2022-09-23T16:10:50;17.00;;;5.80;;
10557;SDS011;5327;47.238;-2.304;2022-09-23T16:13:16;17.23;;;6.67;;
10557;SDS011;5327;47.238;-2.304;2022-09-23T16:15:42;19.23;;;6.93;;
10557;SDS011;5327;47.238;-2.304;2022-09-23T16:18:09;19.37;;;6.00;;
10557;SDS011;5327;47.238;-2.304;2022-09-23T16:20:36;17.00;;;6.43;;
10557;SDS011;5327;47.238;-2.304;2022-09-23T16:23:07;13.80;;;6.00;;
10557;SDS011;5327;47.238;-2.304;2022-09-23T16:25:36;21.57;;;7.10;;
10557;SDS011;5327;47.238;-2.304;2022-09-23T16:28:03;17.30;;;7.10;;
10557;SDS011;5327;47.238;-2.304;2022-09-23T16:30:29;18.67;;;6.70;;
10557;SDS011;5327;47.238;-2.304;2022-09-23T16:32:56;20.80;;;7.70;;
10557;SDS011;5327;47.238;-2.304;2022-09-23T16:35:23;16.30;;;7.30;;
10557;SDS011;5327;47.238;-2.304;2022-09-23T16:37:50;27.03;;;8.20;;
10557;SDS011;5327;47.238;-2.304;2022-09-23T16:40:20;40.57;;;10.37;;
10557;SDS011;5327;47.238;-2.304;2022-09-23T16:42:47;20.33;;;8.00;;
10557;SDS011;5327;47.238;-2.304;2022-09-23T16:45:14;18.63;;;8.70;;
10557;SDS011;5327;47.238;-2.304;2022-09-23T16:47:42;18.10;;;8.93;;
10557;SDS011;5327;47.238;-2.304;2022-09-23T16:50:11;21.13;;;9.70;;
10557;SDS011;5327;47.238;-2.304;2022-09-23T16:52:41;24.97;;;8.87;;
10557;SDS011;5327;47.238;-2.304;2022-09-23T16:55:09;37.83;;;11.80;;
10557;SDS011;5327;47.238;-2.304;2022-09-23T16:57:35;19.20;;;7.73;;
10557;SDS011;5327;47.238;-2.304;2022-09-23T17:00:03;45.93;;;12.23;;
10557;SDS011;5327;47.238;-2.304;2022-09-23T17:02:48;15.13;;;6.63;;
10557;SDS011;5327;47.238;-2.304;2022-09-23T17:05:32;17.67;;;6.47;;
10557;SDS011;5327;47.238;-2.304;2022-09-23T17:07:58;17.53;;;7.23;;
10557;SDS011;5327;47.238;-2.304;2022-09-23T17:10:25;17.47;;;7.17;;
10557;SDS011;5327;47.238;-2.304;2022-09-23T17:12:51;16.77;;;6.83;;
10557;SDS011;5327;47.238;-2.304;2022-09-23T17:15:19;17.13;;;6.40;;
10557;SDS011;5327;47.238;-2.304;2022-09-23T17:17:45;21.23;;;7.40;;